createdAt,value
2022-09-07T00:00:39.381Z,100931.97
2022-09-07T00:01:26.629Z,100947.75
2022-09-07T00:02:13.281Z,100943.75
2022-09-07T00:03:00.277Z,100948.03
2022-09-07T00:03:47.225Z,100941.59
2022-09-07T00:04:33.770Z,100934.06
2022-09-07T00:05:20.636Z,100953.13
2022-09-07T00:06:10.392Z,100950.13
2022-09-07T00:06:57.549Z,100955.47
2022-09-07T00:07:44.305Z,100952.81
2022-09-07T00:08:33.013Z,100952.81
2022-09-07T00:09:19.604Z,100955.72
2022-09-07T00:10:06.617Z,100959.25
2022-09-07T00:10:56.292Z,100955.22
2022-09-07T00:11:42.855Z,100956.00
2022-09-07T00:12:30.479Z,100952.25
2022-09-07T00:13:16.928Z,100956.25
2022-09-07T00:14:03.561Z,100960.31
2022-09-07T00:14:50.121Z,100966.75
2022-09-07T00:15:40.466Z,100967.56
2022-09-07T00:16:30.777Z,100968.91
2022-09-07T00:17:17.387Z,100960.91
2022-09-07T00:18:03.970Z,100958.78
2022-09-07T00:18:50.614Z,100953.66
2022-09-07T00:19:37.074Z,100951.75
2022-09-07T00:20:23.684Z,100940.19
2022-09-07T00:21:11.727Z,100932.13
2022-09-07T00:21:58.241Z,100935.31
2022-09-07T00:22:46.119Z,100933.47
2022-09-07T00:23:34.114Z,100923.00
2022-09-07T00:24:20.649Z,100920.03
2022-09-07T00:25:07.807Z,100910.09
2022-09-07T00:25:54.394Z,100898.84
2022-09-07T00:26:40.875Z,100906.41
2022-09-07T00:27:27.782Z,100905.09
2022-09-07T00:28:14.312Z,100904.22
2022-09-07T00:29:03.667Z,100896.19
2022-09-07T00:29:50.206Z,100887.03
2022-09-07T00:30:42.443Z,100891.88
2022-09-07T00:31:31.447Z,100892.66
2022-09-07T00:32:18.080Z,100896.16
2022-09-07T00:33:05.020Z,100889.78
2022-09-07T00:33:53.967Z,100895.94
2022-09-07T00:34:40.469Z,100888.66
2022-09-07T00:35:27.231Z,100884.66
2022-09-07T00:36:14.052Z,100875.53
2022-09-07T00:37:00.522Z,100879.31
2022-09-07T00:37:47.002Z,100872.56
2022-09-07T00:38:33.527Z,100872.84
2022-09-07T00:39:20.064Z,100867.75
2022-09-07T00:40:07.223Z,100862.91
2022-09-07T00:40:53.918Z,100859.41
2022-09-07T00:41:40.387Z,100858.34
2022-09-07T00:42:26.923Z,100857.78
2022-09-07T00:43:17.180Z,100852.16
2022-09-07T00:44:37.944Z,100855.69
2022-09-07T00:45:24.880Z,100853.00
2022-09-07T00:46:22.518Z,100847.09
2022-09-07T00:47:23.649Z,100841.22
2022-09-07T00:48:19.852Z,100831.84
2022-09-07T00:49:16.225Z,100835.31
2022-09-07T00:50:10.350Z,100825.63
2022-09-07T00:51:04.266Z,100820.53
2022-09-07T00:51:59.143Z,100813.28
2022-09-07T00:52:50.221Z,100810.09
2022-09-07T00:53:46.977Z,100811.16
2022-09-07T00:54:48.918Z,100806.41
2022-09-07T00:55:39.680Z,100806.88
2022-09-07T00:56:32.226Z,100812.28
2022-09-07T00:57:20.272Z,100823.22
2022-09-07T00:58:08.064Z,100835.56
2022-09-07T00:58:56.158Z,100834.22
2022-09-07T00:59:48.145Z,100837.16
2022-09-07T01:00:35.939Z,100839.84
2022-09-07T01:01:31.468Z,100842.78
2022-09-07T01:02:20.164Z,100848.97
2022-09-07T01:03:08.794Z,100851.44
2022-09-07T01:03:59.335Z,100846.41
2022-09-07T01:04:50.939Z,100837.00
2022-09-07T01:05:51.676Z,100839.66
2022-09-07T01:06:39.665Z,100827.84
2022-09-07T01:07:26.198Z,100829.97
2022-09-07T01:08:14.165Z,100823.03
2022-09-07T01:09:05.623Z,100815.00
2022-09-07T01:09:54.451Z,100814.72
2022-09-07T01:10:41.025Z,100812.06
2022-09-07T01:11:27.515Z,100809.91
2022-09-07T01:12:14.688Z,100807.78
2022-09-07T01:13:01.885Z,100807.25
2022-09-07T01:13:50.738Z,100812.59
2022-09-07T01:14:45.123Z,100801.88
2022-09-07T01:15:49.660Z,100798.38
2022-09-07T01:17:07.071Z,100798.88
2022-09-07T01:18:07.377Z,100799.97
2022-09-07T01:19:28.146Z,100794.59
2022-09-07T01:20:31.153Z,100794.88
2022-09-07T01:21:22.118Z,100794.09
2022-09-07T01:22:18.275Z,100787.88
2022-09-07T01:23:14.032Z,100789.25
2022-09-07T01:24:29.852Z,100780.69
2022-09-07T01:25:25.441Z,100785.50
2022-09-07T01:26:59.252Z,100784.69
2022-09-07T01:28:00.727Z,100779.59
2022-09-07T01:28:59.355Z,100783.94
2022-09-07T01:29:57.206Z,100778.81
2022-09-07T01:30:57.554Z,100776.41
2022-09-07T01:31:57.288Z,100772.13
2022-09-07T01:32:55.655Z,100776.16
2022-09-07T01:34:03.221Z,100775.34
2022-09-07T01:34:53.433Z,100768.41
2022-09-07T01:35:48.908Z,100763.03
2022-09-07T01:37:09.037Z,100767.84
2022-09-07T01:38:23.633Z,100756.31
2022-09-07T01:39:10.759Z,100753.06
2022-09-07T01:40:04.561Z,100760.09
2022-09-07T01:41:07.342Z,100763.56
2022-09-07T01:42:01.323Z,100755.84
2022-09-07T01:43:07.288Z,100750.19
2022-09-07T01:43:56.821Z,100749.38
2022-09-07T01:45:02.856Z,100743.75
2022-09-07T01:45:54.843Z,100748.56
2022-09-07T01:47:04.723Z,100739.41
2022-09-07T01:47:58.582Z,100747.44
2022-09-07T01:48:50.725Z,100746.94
2022-09-07T01:49:44.581Z,100742.09
2022-09-07T01:50:42.968Z,100738.88
2022-09-07T01:51:34.601Z,100738.88
2022-09-07T01:52:31.213Z,100730.28
2022-09-07T01:53:49.647Z,100744.25
2022-09-07T01:54:47.262Z,100742.09
2022-09-07T01:55:42.711Z,100744.00
2022-09-07T01:56:42.479Z,100738.91
2022-09-07T01:57:38.540Z,100740.75
2022-09-07T01:58:34.257Z,100737.56
2022-09-07T01:59:55.821Z,100734.63
2022-09-07T02:00:52.090Z,100739.72
2022-09-07T02:02:12.789Z,100740.50
2022-09-07T02:03:11.342Z,100736.22
2022-09-07T02:04:11.808Z,100731.09
2022-09-07T02:05:09.596Z,100731.66
2022-09-07T02:06:08.747Z,100728.72
2022-09-07T02:07:11.828Z,100731.44
2022-09-07T02:08:17.739Z,100727.09
2022-09-07T02:09:38.607Z,100728.69
2022-09-07T02:10:54.181Z,100735.69
2022-09-07T02:11:45.028Z,100730.88
2022-09-07T02:12:42.801Z,100729.81
2022-09-07T02:13:40.226Z,100728.50
2022-09-07T02:14:47.306Z,100725.28
2022-09-07T02:15:44.611Z,100729.53
2022-09-07T02:16:33.409Z,100727.41
2022-09-07T02:17:29.655Z,100725.78
2022-09-07T02:18:16.697Z,100721.47
2022-09-07T02:19:14.035Z,100722.81
2022-09-07T02:20:17.428Z,100722.84
2022-09-07T02:21:08.893Z,100722.06
2022-09-07T02:22:03.398Z,100720.69
2022-09-07T02:22:57.419Z,100724.75
2022-09-07T02:23:54.866Z,100723.66
2022-09-07T02:24:47.525Z,100727.13
2022-09-07T02:25:43.489Z,100731.16
2022-09-07T02:26:30.661Z,100726.88
2022-09-07T02:27:24.322Z,100730.38
2022-09-07T02:28:16.857Z,100733.03
2022-09-07T02:29:04.155Z,100727.69
2022-09-07T02:29:52.097Z,100730.41
2022-09-07T02:30:39.048Z,100733.09
2022-09-07T02:31:25.627Z,100732.28
2022-09-07T02:32:12.512Z,100712.19
2022-09-07T02:32:59.511Z,100720.78
2022-09-07T02:33:47.404Z,100721.28
2022-09-07T02:34:33.937Z,100724.53
2022-09-07T02:35:20.870Z,100715.94
2022-09-07T02:36:09.119Z,100721.84
2022-09-07T02:37:00.972Z,100708.44
2022-09-07T02:37:50.413Z,100711.91
2022-09-07T02:38:37.087Z,100718.34
2022-09-07T02:39:23.849Z,100712.50
2022-09-07T02:40:10.851Z,100712.44
2022-09-07T02:40:59.607Z,100710.31
2022-09-07T02:41:46.475Z,100710.88
2022-09-07T02:42:35.966Z,100706.84
2022-09-07T02:43:24.537Z,100709.53
2022-09-07T02:44:36.118Z,100704.97
2022-09-07T02:45:22.861Z,100705.78
2022-09-07T02:46:24.894Z,100704.72
2022-09-07T02:47:17.527Z,100705.53
2022-09-07T02:48:22.717Z,100700.72
2022-09-07T02:49:28.336Z,100709.03
2022-09-07T02:50:39.394Z,100701.78
2022-09-07T02:51:47.589Z,100703.69
2022-09-07T02:52:54.535Z,100708.78
2022-09-07T02:54:02.794Z,100703.69
2022-09-07T02:54:54.944Z,100710.91
2022-09-07T02:56:06.295Z,100707.94
2022-09-07T02:57:08.910Z,100703.72
2022-09-07T02:58:24.219Z,100709.06
2022-09-07T02:59:37.031Z,100705.28
2022-09-07T03:00:26.148Z,100714.44
2022-09-07T03:02:03.455Z,100708.50
2022-09-07T03:03:13.433Z,100707.47
2022-09-07T03:04:13.422Z,100709.06
2022-09-07T03:05:20.042Z,100700.22
2022-09-07T03:06:17.145Z,100701.84
2022-09-07T03:07:10.977Z,100703.44
2022-09-07T03:08:07.064Z,100697.28
2022-09-07T03:08:58.639Z,100691.94
2022-09-07T03:09:50.235Z,100685.78
2022-09-07T03:10:41.441Z,100691.69
2022-09-07T03:11:29.834Z,100680.72
2022-09-07T03:12:17.329Z,100687.69
2022-09-07T03:13:04.253Z,100672.97
2022-09-07T03:13:50.885Z,100687.13
2022-09-07T03:14:41.220Z,100688.22
2022-09-07T03:15:28.536Z,100687.13
2022-09-07T03:16:15.804Z,100697.84
2022-09-07T03:17:03.085Z,100697.84
2022-09-07T03:17:49.910Z,100686.06
2022-09-07T03:18:36.369Z,100693.03
2022-09-07T03:19:22.925Z,100690.91
2022-09-07T03:20:09.815Z,100696.25
2022-09-07T03:20:56.602Z,100695.44
2022-09-07T03:21:43.894Z,100697.06
2022-09-07T03:22:32.981Z,100694.66
2022-09-07T03:23:19.573Z,100695.72
2022-09-07T03:24:06.513Z,100694.38
2022-09-07T03:24:52.976Z,100692.50
2022-09-07T03:25:39.457Z,100689.03
2022-09-07T03:26:26.017Z,100693.56
2022-09-07T03:27:12.516Z,100697.06
2022-09-07T03:27:59.091Z,100688.47
2022-09-07T03:28:47.640Z,100693.56
2022-09-07T03:29:34.119Z,100681.78
2022-09-07T03:30:20.656Z,100682.84
2022-09-07T03:31:07.187Z,100679.94
2022-09-07T03:31:53.709Z,100679.66
2022-09-07T03:32:40.449Z,100676.41
2022-09-07T03:33:26.971Z,100679.09
2022-09-07T03:34:14.363Z,100682.06
2022-09-07T03:35:02.319Z,100681.25
2022-09-07T03:35:58.432Z,100679.91
2022-09-07T03:36:44.991Z,100683.91
2022-09-07T03:37:31.556Z,100680.19
2022-09-07T03:38:18.034Z,100677.22
2022-09-07T03:39:05.756Z,100674.31
2022-09-07T03:39:52.645Z,100673.75
2022-09-07T03:40:39.257Z,100680.75
2022-09-07T03:41:28.732Z,100676.44
2022-09-07T03:42:15.420Z,100677.50
2022-09-07T03:43:02.008Z,100681.25
2022-09-07T03:43:48.523Z,100684.47
2022-09-07T03:44:35.085Z,100678.59
2022-09-07T03:45:21.673Z,100688.50
2022-09-07T03:46:10.376Z,100684.19
2022-09-07T03:46:57.061Z,100681.81
2022-09-07T03:47:43.858Z,100672.72
2022-09-07T03:48:32.696Z,100679.91
2022-09-07T03:49:19.457Z,100680.19
2022-09-07T03:50:07.208Z,100683.41
2022-09-07T03:50:59.095Z,100669.50
2022-09-07T03:51:45.898Z,100676.19
2022-09-07T03:52:34.351Z,100678.06
2022-09-07T03:53:20.912Z,100684.22
2022-09-07T03:54:07.438Z,100682.88
2022-09-07T03:54:54.001Z,100677.78
2022-09-07T03:55:40.594Z,100677.53
2022-09-07T03:56:27.390Z,100672.97
2022-09-07T03:57:14.159Z,100671.88
2022-09-07T03:58:01.491Z,100669.47
2022-09-07T03:58:49.264Z,100673.78
2022-09-07T03:59:35.864Z,100674.06
2022-09-07T04:00:22.429Z,100683.16
2022-09-07T04:01:20.855Z,100681.81
2022-09-07T04:02:07.610Z,100680.22
2022-09-07T04:02:54.205Z,100689.84
2022-09-07T04:03:41.086Z,100684.22
2022-09-07T04:04:27.789Z,100680.22
2022-09-07T04:05:14.786Z,100676.72
2022-09-07T04:06:02.357Z,100675.38
2022-09-07T04:06:48.849Z,100677.53
2022-09-07T04:07:35.621Z,100681.81
2022-09-07T04:08:27.020Z,100679.13
2022-09-07T04:09:15.074Z,100678.03
2022-09-07T04:10:01.979Z,100673.50
2022-09-07T04:10:48.867Z,100679.94
2022-09-07T04:11:35.713Z,100683.41
2022-09-07T04:12:22.164Z,100678.59
2022-09-07T04:13:10.112Z,100675.63
2022-09-07T04:13:56.592Z,100672.44
2022-09-07T04:14:43.487Z,100674.31
2022-09-07T04:15:29.997Z,100674.31
2022-09-07T04:16:19.592Z,100682.06
2022-09-07T04:17:06.305Z,100684.22
2022-09-07T04:17:52.840Z,100675.38
2022-09-07T04:18:39.363Z,100672.19
2022-09-07T04:19:26.130Z,100679.66
2022-09-07T04:20:12.550Z,100671.09
2022-09-07T04:20:59.305Z,100670.56
2022-09-07T04:21:46.655Z,100678.59
2022-09-07T04:22:33.180Z,100675.38
2022-09-07T04:23:20.164Z,100672.19
2022-09-07T04:24:06.785Z,100671.63
2022-09-07T04:24:54.306Z,100681.53
2022-09-07T04:25:50.850Z,100685.00
2022-09-07T04:26:37.440Z,100670.03
2022-09-07T04:27:23.991Z,100686.34
2022-09-07T04:28:10.804Z,100686.09
2022-09-07T04:28:58.359Z,100683.41
2022-09-07T04:29:44.838Z,100690.38
2022-09-07T04:30:34.487Z,100696.00
2022-09-07T04:31:24.348Z,100696.28
2022-09-07T04:32:15.509Z,100691.16
2022-09-07T04:33:02.420Z,100692.78
2022-09-07T04:33:50.654Z,100688.75
2022-09-07T04:34:37.156Z,100684.44
2022-09-07T04:35:23.607Z,100686.06
2022-09-07T04:36:10.540Z,100670.22
2022-09-07T04:36:57.030Z,100675.06
2022-09-07T04:37:44.532Z,100687.66
2022-09-07T04:38:31.259Z,100685.25
2022-09-07T04:39:17.958Z,100679.34
2022-09-07T04:40:05.605Z,100682.59
2022-09-07T04:41:00.601Z,100685.50
2022-09-07T04:41:47.109Z,100681.25
2022-09-07T04:42:33.597Z,100685.50
2022-09-07T04:43:20.117Z,100676.97
2022-09-07T04:44:07.370Z,100680.41
2022-09-07T04:44:53.826Z,100681.75
2022-09-07T04:45:40.494Z,100687.38
2022-09-07T04:46:33.595Z,100689.25
2022-09-07T04:47:20.319Z,100688.72
2022-09-07T04:48:07.170Z,100689.25
2022-09-07T04:48:56.418Z,100686.56
2022-09-07T04:49:43.300Z,100686.84
2022-09-07T04:50:29.823Z,100683.88
2022-09-07T04:51:18.739Z,100692.47
2022-09-07T04:52:05.503Z,100683.38
2022-09-07T04:52:52.018Z,100691.41
2022-09-07T04:53:38.936Z,100687.09
2022-09-07T04:54:26.402Z,100664.34
2022-09-07T04:55:12.957Z,100678.81
2022-09-07T04:55:59.624Z,100684.97
2022-09-07T04:56:46.065Z,100682.03
2022-09-07T04:57:32.493Z,100679.88
2022-09-07T04:58:19.019Z,100683.88
2022-09-07T04:59:05.997Z,100667.31
2022-09-07T04:59:52.630Z,100674.81
2022-09-07T05:00:39.207Z,100677.75
2022-09-07T05:01:26.239Z,100681.22
2022-09-07T05:02:12.875Z,100674.28
2022-09-07T05:02:59.389Z,100676.97
2022-09-07T05:03:46.703Z,100675.91
2022-09-07T05:04:35.660Z,100674.28
2022-09-07T05:05:22.091Z,100675.63
2022-09-07T05:06:09.143Z,100672.66
2022-09-07T05:06:55.703Z,100670.78
2022-09-07T05:07:42.160Z,100681.75
2022-09-07T05:08:30.541Z,100677.47
2022-09-07T05:09:17.062Z,100682.31
2022-09-07T05:10:04.083Z,100680.41
2022-09-07T05:10:55.231Z,100685.50
2022-09-07T05:11:41.934Z,100686.31
2022-09-07T05:12:28.409Z,100686.84
2022-09-07T05:13:16.200Z,100679.91
2022-09-07T05:14:04.110Z,100678.28
2022-09-07T05:14:51.291Z,100676.69
2022-09-07T05:15:37.836Z,100673.72
2022-09-07T05:16:25.807Z,100673.72
2022-09-07T05:17:12.331Z,100671.06
2022-09-07T05:17:59.456Z,100670.00
2022-09-07T05:18:51.134Z,100666.78
2022-09-07T05:19:37.600Z,100674.00
2022-09-07T05:20:24.386Z,100675.06
2022-09-07T05:21:22.555Z,100678.06
2022-09-07T05:22:09.085Z,100681.25
2022-09-07T05:22:59.361Z,100671.06
2022-09-07T05:23:50.559Z,100672.66
2022-09-07T05:24:37.355Z,100675.34
2022-09-07T05:25:23.884Z,100671.06
2022-09-07T05:26:11.947Z,100672.94
2022-09-07T05:27:01.669Z,100679.63
2022-09-07T05:27:48.900Z,100676.41
2022-09-07T05:28:36.253Z,100679.91
2022-09-07T05:31:35.875Z,100680.47
2022-09-07T05:32:23.931Z,100680.72
2022-09-07T05:33:10.419Z,100684.75
2022-09-07T05:35:04.649Z,100676.19
2022-09-07T05:35:58.373Z,100689.31
2022-09-07T05:36:44.991Z,100685.81
2022-09-07T05:37:31.444Z,100686.63
2022-09-07T05:38:17.908Z,100686.63
2022-09-07T05:39:06.423Z,100681.28
2022-09-07T05:39:54.965Z,100686.63
2022-09-07T05:40:41.908Z,100689.31
2022-09-07T05:41:28.968Z,100687.97
2022-09-07T05:42:15.498Z,100686.34
2022-09-07T05:43:02.027Z,100685.28
2022-09-07T05:44:55.636Z,100684.50
2022-09-07T05:45:42.106Z,100687.16
2022-09-07T05:46:28.915Z,100680.72
2022-09-07T05:47:15.386Z,100690.91
2022-09-07T05:48:02.336Z,100687.94
2022-09-07T05:48:48.836Z,100688.50
2022-09-07T05:49:35.363Z,100693.59
2022-09-07T05:50:22.211Z,100695.19
2022-09-07T05:51:09.128Z,100689.84
2022-09-07T05:51:55.598Z,100687.94
2022-09-07T05:52:42.726Z,100698.94
2022-09-07T05:53:29.289Z,100698.16
2022-09-07T05:54:15.752Z,100694.13
2022-09-07T05:55:28.298Z,100696.81
2022-09-07T05:56:10.544Z,100700.25
2022-09-07T05:56:56.959Z,100698.94
2022-09-07T05:57:43.460Z,100689.84
2022-09-07T05:58:31.602Z,100690.13
2022-09-07T05:59:18.142Z,100695.19
2022-09-07T06:00:04.996Z,100691.16
2022-09-07T06:01:05.589Z,100690.38
2022-09-07T06:01:52.163Z,100696.25
2022-09-07T06:02:39.896Z,100693.06
2022-09-07T06:03:26.626Z,100696.50
2022-09-07T06:04:13.109Z,100694.91
2022-09-07T06:04:59.632Z,100692.78
2022-09-07T06:05:46.255Z,100696.78
2022-09-07T06:06:36.254Z,100709.09
2022-09-07T06:07:23.558Z,100699.72
2022-09-07T06:08:10.192Z,100704.28
2022-09-07T06:08:57.621Z,100694.38
2022-09-07T06:10:50.912Z,100708.56
2022-09-07T06:11:37.397Z,100703.44
2022-09-07T06:12:23.899Z,100707.44
2022-09-07T06:13:10.346Z,100708.22
2022-09-07T06:13:56.804Z,100715.44
2022-09-07T06:14:44.752Z,100706.88
2022-09-07T06:15:34.694Z,100713.56
2022-09-07T06:16:21.957Z,100718.38
2022-09-07T06:17:08.494Z,100713.28
2022-09-07T06:17:55.048Z,100714.84
2022-09-07T06:18:45.437Z,100710.31
2022-09-07T06:19:31.900Z,100717.56
2022-09-07T06:20:18.381Z,100718.34
2022-09-07T06:21:07.280Z,100720.78
2022-09-07T06:21:53.776Z,100721.84
2022-09-07T06:22:40.557Z,100719.72
2022-09-07T06:23:27.006Z,100718.06
2022-09-07T06:24:13.968Z,100722.09
2022-09-07T06:25:00.602Z,100715.38
2022-09-07T06:25:50.315Z,100725.81
2022-09-07T06:26:37.034Z,100722.88
2022-09-07T06:27:23.623Z,100723.94
2022-09-07T06:28:10.238Z,100727.16
2022-09-07T06:28:58.008Z,100730.88
2022-09-07T06:29:44.617Z,100727.66
2022-09-07T06:30:31.256Z,100730.34
2022-09-07T06:31:29.082Z,100734.59
2022-09-07T06:33:22.815Z,100738.19
2022-09-07T06:34:09.319Z,100728.50
2022-09-07T06:34:55.989Z,100729.03
2022-09-07T06:35:42.495Z,100739.19
2022-09-07T06:36:29.709Z,100732.97
2022-09-07T06:37:16.908Z,100729.47
2022-09-07T06:38:03.393Z,100740.16
2022-09-07T06:38:51.831Z,100742.81
2022-09-07T06:39:38.396Z,100739.59
2022-09-07T06:40:25.114Z,100741.97
2022-09-07T06:42:27.108Z,100741.25
2022-09-07T06:43:13.698Z,100739.69
2022-09-07T06:44:00.199Z,100739.00
2022-09-07T06:44:46.802Z,100736.31
2022-09-07T06:45:33.574Z,100740.19
2022-09-07T06:47:27.464Z,100742.59
2022-09-07T06:48:13.906Z,100743.69
2022-09-07T06:49:00.377Z,100743.50
2022-09-07T06:49:48.178Z,100741.22
2022-09-07T06:50:34.755Z,100743.31
2022-09-07T06:51:26.595Z,100748.91
2022-09-07T06:52:14.086Z,100741.16
2022-09-07T06:55:13.738Z,100749.66
2022-09-07T06:56:01.591Z,100751.50
2022-09-07T06:56:48.322Z,100749.31
2022-09-07T06:57:34.767Z,100745.66
2022-09-07T06:58:21.743Z,100749.19
2022-09-07T06:59:08.301Z,100758.91
2022-09-07T06:59:54.738Z,100760.94
2022-09-07T07:00:41.347Z,100752.88
2022-09-07T07:01:29.307Z,100756.53
2022-09-07T07:02:15.805Z,100750.28
2022-09-07T07:03:02.435Z,100747.31
2022-09-07T07:03:49.356Z,100756.00
2022-09-07T07:04:40.596Z,100750.50
2022-09-07T07:05:27.751Z,100758.81
2022-09-07T07:06:14.839Z,100754.50
2022-09-07T07:07:01.500Z,100758.69
2022-09-07T07:07:48.198Z,100755.69
2022-09-07T07:08:36.226Z,100765.22
2022-09-07T07:09:22.718Z,100762.56
2022-09-07T07:10:09.470Z,100761.22
2022-09-07T07:10:56.476Z,100761.06
2022-09-07T07:11:44.637Z,100764.16
2022-09-07T07:14:03.857Z,100765.19
2022-09-07T07:14:51.950Z,100760.59
2022-09-07T07:15:38.709Z,100752.41
2022-09-07T07:16:25.928Z,100764.94
2022-09-07T07:17:13.232Z,100762.34
2022-09-07T07:18:09.513Z,100763.06
2022-09-07T07:19:06.240Z,100770.47
2022-09-07T07:19:52.769Z,100774.94
2022-09-07T07:20:41.862Z,100766.50
2022-09-07T07:21:38.364Z,100777.97
2022-09-07T07:22:50.213Z,100764.84
2022-09-07T07:23:36.970Z,100769.59
2022-09-07T07:24:23.585Z,100769.78
2022-09-07T07:25:10.074Z,100772.41
2022-09-07T07:26:02.405Z,100767.50
2022-09-07T07:26:49.267Z,100772.38
2022-09-07T07:27:35.992Z,100774.53
2022-09-07T07:29:33.515Z,100773.53
2022-09-07T07:30:20.761Z,100772.50
2022-09-07T07:31:10.595Z,100775.69
2022-09-07T07:31:59.649Z,100776.50
2022-09-07T07:32:46.733Z,100776.44
2022-09-07T07:33:35.481Z,100773.19
2022-09-07T07:34:21.994Z,100773.78
2022-09-07T07:35:09.467Z,100771.00
2022-09-07T07:35:55.860Z,100784.13
2022-09-07T07:36:42.376Z,100776.03
2022-09-07T07:37:28.947Z,100785.41
2022-09-07T07:40:30.974Z,100787.41
2022-09-07T07:42:28.766Z,100781.72
2022-09-07T07:43:15.193Z,100776.88
2022-09-07T07:44:03.083Z,100782.72
2022-09-07T07:44:49.622Z,100775.94
2022-09-07T07:46:42.966Z,100780.03
2022-09-07T07:47:29.419Z,100784.78
2022-09-07T07:48:15.833Z,100775.88
2022-09-07T07:49:02.486Z,100783.66
2022-09-07T07:49:49.462Z,100783.38
2022-09-07T07:50:36.497Z,100784.88
2022-09-07T07:51:23.020Z,100792.91
2022-09-07T07:54:22.988Z,100778.41
2022-09-07T07:56:16.939Z,100785.66
2022-09-07T07:57:05.220Z,100785.94
2022-09-07T07:57:51.890Z,100784.63
2022-09-07T07:58:40.346Z,100781.41
2022-09-07T07:59:26.716Z,100780.47
2022-09-07T08:00:20.511Z,100779.31
2022-09-07T08:01:16.743Z,100779.84
2022-09-07T08:02:05.477Z,100790.69
2022-09-07T08:02:52.327Z,100786.63
2022-09-07T08:03:41.164Z,100790.09
2022-09-07T08:04:27.659Z,100783.47
2022-09-07T08:05:16.965Z,100784.19
2022-09-07T08:06:08.969Z,100787.84
2022-09-07T08:06:55.454Z,100785.94
2022-09-07T08:07:42.995Z,100785.94
2022-09-07T08:08:30.276Z,100780.03
2022-09-07T08:09:16.877Z,100780.63
2022-09-07T08:10:03.550Z,100786.34
2022-09-07T08:10:50.635Z,100782.63
2022-09-07T08:11:37.179Z,100777.63
2022-09-07T08:12:26.649Z,100773.94
2022-09-07T08:13:17.000Z,100777.34
2022-09-07T08:14:06.069Z,100771.88
2022-09-07T08:14:53.997Z,100784.50
2022-09-07T08:15:44.555Z,100781.22
2022-09-07T08:16:31.189Z,100789.25
2022-09-07T08:17:17.770Z,100781.88
2022-09-07T08:18:04.621Z,100788.00
2022-09-07T08:18:51.365Z,100788.72
2022-09-07T08:19:38.344Z,100790.25
2022-09-07T08:20:24.784Z,100791.56
2022-09-07T08:21:14.281Z,100786.97
2022-09-07T08:22:00.686Z,100793.66
2022-09-07T08:22:49.787Z,100795.84
2022-09-07T08:23:37.211Z,100787.19
2022-09-07T08:24:23.645Z,100776.81
2022-09-07T08:25:10.110Z,100783.88
2022-09-07T08:25:58.326Z,100782.78
2022-09-07T08:26:44.765Z,100778.94
2022-09-07T08:27:31.166Z,100788.59
2022-09-07T08:28:17.704Z,100784.03
2022-09-07T08:29:04.252Z,100794.13
2022-09-07T08:29:50.748Z,100793.63
2022-09-07T08:30:39.898Z,100792.03
2022-09-07T08:31:26.934Z,100791.00
2022-09-07T08:32:13.961Z,100789.94
2022-09-07T08:33:00.421Z,100785.84
2022-09-07T08:33:46.874Z,100789.84
2022-09-07T08:34:36.111Z,100789.97
2022-09-07T08:35:23.744Z,100794.63
2022-09-07T08:36:16.570Z,100791.94
2022-09-07T08:37:03.212Z,100798.84
2022-09-07T08:37:49.839Z,100802.34
2022-09-07T08:38:37.982Z,100807.16
2022-09-07T08:39:24.490Z,100811.47
2022-09-07T08:40:17.174Z,100802.63
2022-09-07T08:41:22.675Z,100811.59
2022-09-07T08:42:36.309Z,100807.06
2022-09-07T08:43:49.329Z,100811.41
2022-09-07T08:44:38.738Z,100817.91
2022-09-07T08:45:44.725Z,100811.88
2022-09-07T08:46:47.314Z,100821.13
2022-09-07T08:47:45.976Z,100819.25
2022-09-07T08:48:35.306Z,100812.19
2022-09-07T08:49:47.228Z,100823.75
2022-09-07T08:50:47.966Z,100820.59
2022-09-07T08:51:44.698Z,100824.56
2022-09-07T08:52:42.423Z,100819.06
2022-09-07T08:53:30.147Z,100811.25
2022-09-07T08:54:17.901Z,100821.59
2022-09-07T08:55:18.854Z,100820.31
2022-09-07T08:56:12.295Z,100823.50
2022-09-07T08:58:32.672Z,100816.28
2022-09-07T08:59:51.442Z,100823.88
2022-09-07T09:00:39.537Z,100816.59
2022-09-07T09:01:41.150Z,100820.88
2022-09-07T09:02:32.595Z,100828.66
2022-09-07T09:03:29.868Z,100824.16
2022-09-07T09:04:29.539Z,100821.38
2022-09-07T09:05:36.548Z,100824.66
2022-09-07T09:06:48.934Z,100812.72
2022-09-07T09:07:57.394Z,100824.31
2022-09-07T09:08:44.382Z,100823.56
2022-09-07T09:09:54.379Z,100826.53
2022-09-07T09:10:54.063Z,100821.88
2022-09-07T09:11:58.541Z,100827.56
2022-09-07T09:12:52.138Z,100830.50
2022-09-07T09:13:44.976Z,100821.16
2022-09-07T09:14:52.962Z,100824.88
2022-09-07T09:15:52.299Z,100829.25
2022-09-07T09:16:51.399Z,100829.44
2022-09-07T09:18:05.809Z,100824.56
2022-09-07T09:18:55.270Z,100831.78
2022-09-07T09:19:51.360Z,100832.94
2022-09-07T09:20:54.916Z,100830.84
2022-09-07T09:21:42.717Z,100841.34
2022-09-07T09:22:29.472Z,100829.44
2022-09-07T09:23:19.704Z,100834.72
2022-09-07T09:24:16.271Z,100836.97
2022-09-07T09:25:31.691Z,100834.94
2022-09-07T09:26:28.373Z,100838.72
2022-09-07T09:27:16.153Z,100829.97
2022-09-07T09:28:03.146Z,100832.69
2022-09-07T09:28:49.721Z,100835.91
2022-09-07T09:29:36.146Z,100837.63
2022-09-07T09:30:24.249Z,100833.97
2022-09-07T09:31:19.268Z,100839.53
2022-09-07T09:32:32.833Z,100836.50
2022-09-07T09:33:27.686Z,100831.06
2022-09-07T09:34:23.921Z,100822.97
2022-09-07T09:35:16.550Z,100822.81
2022-09-07T09:36:25.711Z,100830.59
2022-09-07T09:37:12.658Z,100822.94
2022-09-07T09:37:59.119Z,100830.28
2022-09-07T09:38:45.719Z,100829.63
2022-09-07T09:39:37.558Z,100829.66
2022-09-07T09:40:26.369Z,100836.84
2022-09-07T09:41:15.464Z,100840.31
2022-09-07T09:42:22.862Z,100835.22
2022-09-07T09:43:21.762Z,100842.19
2022-09-07T09:44:16.207Z,100829.22
2022-09-07T09:45:16.189Z,100841.19
2022-09-07T09:46:18.222Z,100841.81
2022-09-07T09:48:23.086Z,100835.50
2022-09-07T09:49:18.517Z,100833.03
2022-09-07T09:52:29.029Z,100834.50
2022-09-07T09:52:47.698Z,100824.44
2022-09-07T09:53:42.214Z,100835.00
2022-09-07T09:54:43.348Z,100835.13
2022-09-07T09:55:35.384Z,100828.13
2022-09-07T09:56:36.085Z,100833.16
2022-09-07T10:00:31.391Z,100829.00
2022-09-07T10:01:33.586Z,100837.81
2022-09-07T10:04:41.034Z,100836.03
2022-09-07T10:05:33.964Z,100835.59
2022-09-07T10:06:20.675Z,100843.38
2022-09-07T10:07:21.302Z,100845.06
2022-09-07T10:08:37.021Z,100842.78
2022-09-07T10:09:37.959Z,100841.50
2022-09-07T10:10:27.221Z,100845.78
2022-09-07T10:11:15.380Z,100848.31
2022-09-07T10:12:07.001Z,100840.34
2022-09-07T10:12:55.867Z,100852.19
2022-09-07T10:14:00.594Z,100851.06
2022-09-07T10:14:47.605Z,100843.13